Time;durP1;ratioP1;P1;durP2;ratioP2;P2;SDS_P1;SDS_P2;PMS_P1;PMS_P2;Temp;Humidity;BMP_temperature;BMP_pressure;BME280_temperature;BME280_humidity;BME280_pressure;Samples;Min_cycle;Max_cycle;Signal;HPM_P1;HPM_P2
2022/06/30 00:00:19;;;;;;;7.53;6.07;;;;;;;20.03;61.78;100989.63;5068997;28;20045;-77
2022/06/30 00:02:46;;;;;;;7.90;5.75;;;;;;;19.96;62.18;100980.31;5071372;28;20045;-78
2022/06/30 00:05:13;;;;;;;8.13;5.78;;;;;;;19.90;62.19;100976.22;5071482;28;20061;-79
2022/06/30 00:07:42;;;;;;;6.20;5.55;;;;;;;19.83;62.63;100983.78;5071078;28;20138;-79
2022/06/30 00:10:11;;;;;;;6.90;5.57;;;;;;;19.74;63.25;100971.03;5063497;28;20129;-79
2022/06/30 00:12:40;;;;;;;7.10;5.78;;;;;;;19.70;63.38;100972.19;5070206;28;20068;-80
2022/06/30 00:15:08;;;;;;;10.63;6.30;;;;;;;19.67;63.64;100978.59;5072587;28;20575;-79
2022/06/30 00:17:36;;;;;;;7.55;5.40;;;;;;;19.67;64.57;100978.59;5070010;28;20511;-78
2022/06/30 00:20:04;;;;;;;8.85;6.75;;;;;;;19.69;64.64;100974.00;5070779;28;20061;-80
2022/06/30 00:22:31;;;;;;;8.52;7.38;;;;;;;19.71;64.54;100976.56;5071215;28;20044;-80
2022/06/30 00:24:58;;;;;;;11.50;7.85;;;;;;;19.73;64.38;100974.66;5071242;28;20045;-79
2022/06/30 00:27:26;;;;;;;11.52;8.45;;;;;;;19.75;64.47;100978.09;5070440;28;20041;-79
2022/06/30 00:29:53;;;;;;;11.88;8.45;;;;;;;19.77;64.62;100975.31;5071088;28;20503;-79
2022/06/30 00:32:20;;;;;;;11.90;8.93;;;;;;;19.77;64.68;100978.84;5070619;28;20108;-80
2022/06/30 00:34:49;;;;;;;9.27;8.02;;;;;;;19.78;64.63;100974.34;5071629;28;20818;-79
2022/06/30 00:37:16;;;;;;;10.13;9.02;;;;;;;19.79;64.85;100970.72;5070095;28;20037;-76
2022/06/30 00:39:43;;;;;;;11.77;8.88;;;;;;;19.79;65.05;100965.38;5070341;28;20041;-76
2022/06/30 00:42:10;;;;;;;9.30;8.30;;;;;;;19.80;64.84;100961.72;5070395;28;20455;-78
2022/06/30 00:44:38;;;;;;;9.50;8.50;;;;;;;19.79;64.84;100960.00;5072204;28;20052;-78
2022/06/30 00:47:06;;;;;;;10.77;8.73;;;;;;;19.78;65.30;100956.50;5069895;28;20099;-78
2022/06/30 00:49:34;;;;;;;9.32;8.30;;;;;;;19.75;65.25;100963.84;5071208;28;20069;-78
2022/06/30 00:52:02;;;;;;;9.50;8.50;;;;;;;19.71;65.14;100963.19;5070400;28;20045;-83
2022/06/30 00:54:33;;;;;;;10.30;9.20;;;;;;;19.67;65.18;100959.88;5070922;28;20049;-80
2022/06/30 00:57:01;;;;;;;9.45;8.45;;;;;;;19.59;65.49;100959.53;5062031;28;20495;-81
2022/06/30 00:59:32;;;;;;;9.68;8.57;;;;;;;19.55;65.92;100956.22;5070946;28;20037;-82
2022/06/30 01:02:02;;;;;;;13.00;8.35;;;;;;;19.53;65.94;100951.94;5069264;28;20065;-81
2022/06/30 01:04:33;;;;;;;11.60;9.25;;;;;;;19.52;66.21;100945.72;5070381;28;20589;-80
2022/06/30 01:07:03;;;;;;;11.80;8.82;;;;;;;19.57;66.16;100949.91;5068877;28;20064;-82
2022/06/30 01:15:06;;;;;;;11.07;8.77;;;;;;;19.46;66.41;100942.59;5062910;28;20160;-80
2022/06/30 01:17:33;;;;;;;11.23;9.32;;;;;;;19.44;66.78;100945.38;5070977;28;20520;-81
2022/06/30 01:20:00;;;;;;;11.63;8.23;;;;;;;19.42;66.84;100949.13;5070711;28;20073;-79
2022/06/30 01:22:28;;;;;;;13.43;9.80;;;;;;;19.38;66.52;100946.63;5069403;28;20500;-78
2022/06/30 01:24:55;;;;;;;11.05;9.73;;;;;;;19.33;66.53;100956.75;5070880;28;20067;-79
2022/06/30 01:27:22;;;;;;;10.20;9.02;;;;;;;19.29;65.96;100959.72;5069979;28;20064;-79
2022/06/30 01:29:52;;;;;;;11.27;9.77;;;;;;;19.24;66.13;100954.69;5069432;28;20041;-80
2022/06/30 01:32:20;;;;;;;11.60;9.43;;;;;;;19.20;66.18;100955.84;5069828;28;20045;-79
2022/06/30 01:34:47;;;;;;;12.77;9.88;;;;;;;19.15;66.37;100961.50;5068640;28;20037;-80
2022/06/30 01:37:14;;;;;;;11.20;9.95;;;;;;;19.12;66.48;100961.69;5067624;28;20496;-76
2022/06/30 01:39:41;;;;;;;11.63;9.10;;;;;;;19.08;66.55;100965.50;5067916;28;20041;-77
2022/06/30 01:42:09;;;;;;;12.52;10.18;;;;;;;19.04;66.77;100972.03;5066601;28;20251;-77
2022/06/30 01:44:37;;;;;;;11.27;10.07;;;;;;;19.00;66.70;100965.16;5069795;28;20096;-76
2022/06/30 01:47:09;;;;;;;11.48;10.30;;;;;;;18.97;66.88;100970.69;5069244;28;20137;-76
2022/06/30 01:49:37;;;;;;;18.38;10.32;;;;;;;18.93;66.86;100970.00;5068797;28;20130;-75
2022/06/30 01:52:04;;;;;;;11.93;9.55;;;;;;;18.93;67.48;100970.88;5070322;28;20928;-76
2022/06/30 01:54:32;;;;;;;12.35;10.80;;;;;;;18.95;67.79;100977.94;5068478;28;20049;-79
2022/06/30 01:56:59;;;;;;;15.23;11.45;;;;;;;18.97;67.77;100968.03;5069739;28;20029;-80
2022/06/30 01:59:26;;;;;;;19.15;10.90;;;;;;;18.99;67.59;100971.44;5069745;28;20123;-79
2022/06/30 02:01:53;;;;;;;11.88;10.48;;;;;;;19.00;67.66;100971.38;5069448;28;20116;-79
2022/06/30 02:07:06;;;;;;;12.55;10.98;;;;;;;18.97;67.71;100960.88;5066980;28;20064;-79
2022/06/30 02:09:33;;;;;;;16.90;11.30;;;;;;;18.95;67.56;100962.75;5070008;28;20040;-79
2022/06/30 02:14:46;;;;;;;14.40;11.75;;;;;;;18.88;68.30;100959.59;5068985;28;20111;-79
2022/06/30 02:17:14;;;;;;;15.73;11.90;;;;;;;18.85;68.20;100958.94;5069567;28;20045;-78
2022/06/30 02:19:41;;;;;;;14.68;11.77;;;;;;;18.78;68.24;100967.34;5070219;28;20529;-78
2022/06/30 02:22:08;;;;;;;16.40;11.18;;;;;;;18.75;68.42;100969.34;5069913;28;20120;-78
2022/06/30 02:24:35;;;;;;;13.38;11.38;;;;;;;18.69;68.74;100965.25;5068297;28;20103;-80
2022/06/30 02:27:03;;;;;;;12.77;10.98;;;;;;;18.65;68.84;100966.38;5069561;28;20072;-79
2022/06/30 02:29:30;;;;;;;16.98;11.40;;;;;;;18.59;69.38;100951.59;5070263;28;20115;-80
2022/06/30 02:31:57;;;;;;;11.85;10.57;;;;;;;18.55;69.30;100962.56;5068522;28;20041;-81
2022/06/30 02:34:24;;;;;;;15.05;11.13;;;;;;;18.48;69.60;100962.09;5069211;28;20037;-79
2022/06/30 02:36:52;;;;;;;12.80;11.38;;;;;;;18.43;69.78;100966.88;5070145;28;20061;-81
2022/06/30 02:39:19;;;;;;;13.88;10.68;;;;;;;18.37;69.69;100972.56;5068390;28;20134;-79
2022/06/30 02:41:46;;;;;;;14.63;11.27;;;;;;;18.34;70.11;100976.28;5072346;28;20037;-77
2022/06/30 02:44:13;;;;;;;13.05;11.18;;;;;;;18.31;70.06;100982.69;5073406;28;20131;-77
2022/06/30 02:46:40;;;;;;;16.23;11.93;;;;;;;18.31;69.94;100987.16;5071728;28;20504;-76
2022/06/30 02:49:08;;;;;;;14.00;11.52;;;;;;;18.30;70.09;100980.13;5072596;28;20076;-79
2022/06/30 02:51:35;;;;;;;12.85;10.75;;;;;;;18.27;70.54;100978.47;5065168;28;20422;-77
2022/06/30 02:54:02;;;;;;;13.05;11.73;;;;;;;18.25;70.62;100983.06;5072070;28;20045;-79
2022/06/30 02:56:29;;;;;;;14.80;11.82;;;;;;;18.22;70.63;100972.56;5072102;28;20499;-76
2022/06/30 02:58:57;;;;;;;16.33;12.30;;;;;;;18.19;70.60;100969.22;5072162;28;20223;-76
2022/06/30 03:01:24;;;;;;;15.07;12.60;;;;;;;18.15;70.64;100969.41;5072665;28;20045;-76
2022/06/30 03:03:51;;;;;;;14.45;11.70;;;;;;;18.11;70.40;100964.34;5071580;28;20041;-75
2022/06/30 03:06:18;;;;;;;16.42;12.90;;;;;;;18.08;70.95;100962.72;5073328;28;20077;-75
2022/06/30 03:08:45;;;;;;;13.88;11.90;;;;;;;18.06;71.09;100961.13;5072052;28;20076;-76
2022/06/30 03:11:16;;;;;;;15.02;12.77;;;;;;;18.00;71.41;100952.50;5073277;28;20103;-77
2022/06/30 03:14:03;;;;;;;14.65;12.50;;;;;;;17.94;71.98;100963.53;5072674;28;20574;-79
2022/06/30 03:16:30;;;;;;;15.75;11.93;;;;;;;17.88;72.18;100958.53;5072359;28;20095;-79
2022/06/30 03:18:58;;;;;;;14.40;11.52;;;;;;;17.81;72.62;100958.03;5071620;28;20045;-78
2022/06/30 03:21:25;;;;;;;13.40;12.00;;;;;;;17.75;73.08;100960.22;5073145;28;20060;-78
2022/06/30 03:23:52;;;;;;;18.75;12.07;;;;;;;17.68;73.06;100957.91;5072774;28;20853;-77
2022/06/30 03:26:19;;;;;;;14.63;11.57;;;;;;;17.63;72.96;100948.47;5072722;28;20095;-77
2022/06/30 03:28:46;;;;;;;15.95;12.55;;;;;;;17.59;73.45;100947.78;5072032;28;20099;-76
2022/06/30 03:31:13;;;;;;;13.93;12.43;;;;;;;17.58;73.57;100958.53;5072233;28;20763;-77
2022/06/30 03:33:40;;;;;;;14.90;12.60;;;;;;;17.57;73.81;100951.50;5070981;28;20380;-76
2022/06/30 03:36:08;;;;;;;16.17;12.68;;;;;;;17.56;74.06;100952.44;5062088;28;20104;-77
2022/06/30 03:38:35;;;;;;;14.07;12.25;;;;;;;17.53;74.16;100949.00;5066633;28;20151;-76
2022/06/30 03:41:03;;;;;;;14.98;12.32;;;;;;;17.51;74.13;100950.88;5070308;28;20087;-77
2022/06/30 03:43:30;;;;;;;19.45;12.95;;;;;;;17.52;74.12;100949.94;5072143;28;20053;-76
2022/06/30 03:45:59;;;;;;;15.32;13.20;;;;;;;17.63;73.83;100959.13;5071289;28;20076;-77
2022/06/30 03:48:26;;;;;;;15.35;12.82;;;;;;;17.77;73.47;100953.84;5071049;28;20114;-76
2022/06/30 03:50:53;;;;;;;15.65;13.57;;;;;;;17.83;73.62;100957.97;5072283;28;20041;-75
2022/06/30 03:53:20;;;;;;;16.33;13.65;;;;;;;17.83;73.76;100963.31;5070246;28;20048;-76
2022/06/30 03:55:50;;;;;;;18.50;14.38;;;;;;;17.82;73.19;100967.75;5071347;28;20144;-75
2022/06/30 03:58:17;;;;;;;15.02;12.02;;;;;;;17.97;73.35;100960.69;5072086;28;20041;-75
2022/06/30 04:00:44;;;;;;;14.82;13.30;;;;;;;18.10;73.46;100951.97;5071456;28;20045;-74
2022/06/30 04:03:11;;;;;;;17.15;14.50;;;;;;;18.15;72.87;100961.41;5071587;28;20460;-74
2022/06/30 04:05:40;;;;;;;16.13;13.50;;;;;;;18.13;72.87;100952.63;5070992;28;20112;-76
2022/06/30 04:08:07;;;;;;;15.70;12.45;;;;;;;18.12;72.79;100945.56;5063238;28;20128;-75
2022/06/30 04:10:37;;;;;;;16.55;14.85;;;;;;;18.24;72.29;100940.44;5071352;28;20037;-73
2022/06/30 04:13:04;;;;;;;15.88;14.13;;;;;;;18.26;72.27;100941.22;5069701;28;20037;-75
2022/06/30 04:15:31;;;;;;;20.63;15.07;;;;;;;18.29;71.95;100941.03;5072372;28;20079;-76
2022/06/30 04:17:58;;;;;;;21.83;15.80;;;;;;;18.30;71.93;100938.25;5070084;28;20115;-79
2022/06/30 04:20:26;;;;;;;19.35;15.32;;;;;;;18.36;71.76;100941.53;5067800;28;20425;-78
2022/06/30 04:22:53;;;;;;;23.40;15.98;;;;;;;18.52;71.54;100939.59;5069933;28;20045;-77
2022/06/30 04:25:21;;;;;;;19.40;14.93;;;;;;;18.65;71.00;100933.50;5072211;28;20064;-79
2022/06/30 04:27:56;;;;;;;19.17;15.00;;;;;;;18.65;70.99;100936.19;5070846;28;20051;-77
2022/06/30 04:33:09;;;;;;;26.55;15.98;;;;;;;18.66;71.00;100930.72;5061752;28;20156;-76
2022/06/30 04:35:36;;;;;;;17.92;14.35;;;;;;;18.69;71.10;100938.56;5071575;28;20126;-76
2022/06/30 04:38:04;;;;;;;22.92;16.50;;;;;;;18.75;71.00;100938.16;5063953;28;20045;-76
2022/06/30 04:43:17;;;;;;;22.08;15.80;;;;;;;18.87;70.85;100919.63;5070929;28;20064;-77
2022/06/30 04:45:44;;;;;;;19.17;15.35;;;;;;;18.94;70.66;100923.66;5069588;28;20051;-73
2022/06/30 04:48:12;;;;;;;17.15;14.93;;;;;;;19.02;70.48;100923.16;5069734;28;20563;-78
2022/06/30 04:50:40;;;;;;;20.75;15.60;;;;;;;19.12;70.26;100924.28;5068560;28;20120;-78
2022/06/30 04:53:08;;;;;;;19.70;16.25;;;;;;;19.21;70.28;100929.03;5070510;28;20481;-77
2022/06/30 04:55:35;;;;;;;22.67;15.80;;;;;;;19.30;70.05;100921.34;5072252;28;20075;-77
2022/06/30 04:58:03;;;;;;;19.73;15.20;;;;;;;19.39;69.86;100931.44;5068786;28;20099;-78
2022/06/30 05:00:30;;;;;;;24.27;14.85;;;;;;;19.51;69.84;100924.44;5070258;28;20630;-78
2022/06/30 05:02:57;;;;;;;19.08;13.32;;;;;;;19.63;69.25;100923.63;5070144;28;20490;-78
2022/06/30 05:05:25;;;;;;;19.33;13.32;;;;;;;19.78;69.00;100923.53;5070990;28;20570;-77
2022/06/30 05:07:52;;;;;;;18.15;13.50;;;;;;;19.92;68.86;100933.31;5070652;28;20530;-78
2022/06/30 05:10:20;;;;;;;17.08;13.55;;;;;;;20.02;68.35;100927.25;5070516;28;20096;-78
2022/06/30 05:12:47;;;;;;;18.20;13.82;;;;;;;20.19;68.29;100940.41;5067953;28;20826;-77
2022/06/30 05:15:14;;;;;;;28.52;14.48;;;;;;;20.39;68.16;100945.25;5070973;28;20072;-78
2022/06/30 05:17:41;;;;;;;19.08;14.45;;;;;;;20.61;67.76;100936.53;5072509;28;20170;-78
2022/06/30 05:20:14;;;;;;;23.02;16.30;;;;;;;21.02;66.78;100933.69;5072401;28;20127;-77
2022/06/30 05:22:42;;;;;;;20.13;16.40;;;;;;;22.15;64.00;100928.78;5072628;28;20057;-78
2022/06/30 05:27:55;;;;;;;19.42;14.77;;;;;;;24.27;59.31;100920.50;5070371;28;20044;-76
2022/06/30 05:30:22;;;;;;;23.52;15.10;;;;;;;26.53;53.96;100920.69;5070856;28;20126;-77
2022/06/30 05:32:53;;;;;;;16.98;13.40;;;;;;;28.48;49.10;100914.69;5070558;28;20045;-78
2022/06/30 05:35:21;;;;;;;14.30;11.85;;;;;;;30.12;44.49;100913.22;5069819;28;20052;-78
2022/06/30 05:37:51;;;;;;;15.48;12.23;;;;;;;31.43;41.22;100916.34;5059406;28;20050;-76
2022/06/30 05:40:18;;;;;;;14.35;11.65;;;;;;;32.60;38.81;100929.69;5055503;28;20041;-77
2022/06/30 05:43:12;;;;;;;18.08;10.48;;;;;;;33.59;36.18;100920.91;5064677;28;20080;-78
2022/06/30 05:45:41;;;;;;;24.08;12.40;;;;;;;34.35;34.67;100922.09;5063794;28;20056;-76
2022/06/30 05:48:09;;;;;;;17.23;11.57;;;;;;;34.96;32.36;100917.75;5056937;28;20053;-77
2022/06/30 05:50:36;;;;;;;17.20;10.98;;;;;;;35.48;31.48;100930.09;5056974;28;20047;-76
2022/06/30 05:53:04;;;;;;;18.65;10.57;;;;;;;35.87;31.00;100925.66;5067982;28;20040;-78
2022/06/30 05:55:31;;;;;;;13.48;10.57;;;;;;;36.20;29.51;100928.34;5058847;28;20124;-77
2022/06/30 05:58:04;;;;;;;11.98;9.68;;;;;;;36.42;29.25;100939.09;5064599;28;20045;-77
2022/06/30 06:00:32;;;;;;;22.70;10.45;;;;;;;36.52;27.87;100942.22;5067049;28;20076;-77
2022/06/30 06:03:01;;;;;;;13.85;9.70;;;;;;;36.59;28.54;100944.06;5064606;28;20041;-80
2022/06/30 06:05:28;;;;;;;14.00;10.07;;;;;;;36.66;28.09;100928.44;5054956;28;20053;-77
2022/06/30 06:07:55;;;;;;;12.05;9.55;;;;;;;36.80;27.79;100940.19;5066895;28;20051;-77
2022/06/30 06:10:22;;;;;;;14.85;10.02;;;;;;;36.82;27.67;100938.09;5071133;28;20045;-77
2022/06/30 06:12:49;;;;;;;22.05;10.05;;;;;;;36.97;27.91;100932.31;5068361;28;20061;-78
2022/06/30 06:15:17;;;;;;;24.48;10.20;;;;;;;37.16;27.34;100936.00;5070754;28;20041;-77
2022/06/30 06:17:47;;;;;;;18.52;10.40;;;;;;;37.25;26.85;100933.81;5074299;28;20040;-77
2022/06/30 06:20:18;;;;;;;13.93;9.25;;;;;;;37.06;27.00;100933.75;5068864;28;20560;-77
2022/06/30 06:22:45;;;;;;;15.60;9.85;;;;;;;36.16;27.78;100929.00;5068016;28;20540;-77
2022/06/30 06:25:15;;;;;;;11.70;8.43;;;;;;;33.96;30.11;100937.22;5062758;28;20068;-78
2022/06/30 06:27:42;;;;;;;14.45;8.93;;;;;;;31.33;34.24;100934.81;5054610;28;20396;-78
2022/06/30 06:30:11;;;;;;;16.40;9.75;;;;;;;29.33;37.80;100940.94;5072001;28;20592;-78
2022/06/30 06:32:38;;;;;;;14.63;9.77;;;;;;;27.88;40.56;100946.97;5074914;28;20045;-77
2022/06/30 06:35:06;;;;;;;17.30;9.68;;;;;;;26.85;43.15;100951.88;5074659;28;20053;-75
2022/06/30 06:37:38;;;;;;;16.00;9.60;;;;;;;26.01;44.80;100941.72;5074385;28;20037;-76
2022/06/30 06:40:06;;;;;;;12.32;10.10;;;;;;;25.47;46.32;100940.50;5070210;28;20049;-77
2022/06/30 06:42:33;;;;;;;18.38;10.35;;;;;;;25.03;47.29;100947.06;5055330;28;20076;-76
2022/06/30 06:45:10;;;;;;;22.52;10.93;;;;;;;24.69;48.81;100955.47;5073534;28;20494;-77
2022/06/30 06:47:37;;;;;;;18.70;10.95;;;;;;;24.46;50.19;100957.47;5074380;28;20516;-76
2022/06/30 06:50:09;;;;;;;18.80;10.02;;;;;;;24.24;50.68;100963.91;5073135;28;20092;-77
2022/06/30 06:52:37;;;;;;;32.95;11.25;;;;;;;24.10;51.79;100957.03;5072806;28;20095;-78
2022/06/30 06:55:05;;;;;;;29.88;11.88;;;;;;;24.01;53.15;100966.72;5074447;28;20468;-77
2022/06/30 06:57:38;;;;;;;18.98;10.75;;;;;;;23.93;53.61;100970.03;5073170;28;20113;-77
2022/06/30 07:00:09;;;;;;;20.77;12.10;;;;;;;23.79;53.50;100968.50;5074364;28;20045;-77
2022/06/30 07:02:36;;;;;;;19.33;11.98;;;;;;;23.66;54.12;100970.53;5054005;28;20041;-78
2022/06/30 07:05:04;;;;;;;17.75;12.55;;;;;;;23.56;54.39;100974.00;5054515;28;20055;-77
2022/06/30 07:07:36;;;;;;;28.05;13.80;;;;;;;23.52;55.42;100977.06;5053583;28;20057;-76
2022/06/30 07:10:05;;;;;;;16.85;12.38;;;;;;;23.49;56.02;100985.41;5053283;28;20538;-77
2022/06/30 07:12:36;;;;;;;19.42;13.60;;;;;;;23.47;55.88;100985.50;5058118;28;20591;-76
2022/06/30 07:15:04;;;;;;;17.00;13.73;;;;;;;23.42;56.81;100988.59;5073760;28;20561;-77
2022/06/30 07:17:36;;;;;;;23.10;14.80;;;;;;;23.41;57.30;100992.25;5061691;28;20496;-77
2022/06/30 07:20:05;;;;;;;19.95;14.80;;;;;;;23.44;57.21;100995.69;5058080;28;20068;-76
2022/06/30 07:22:32;;;;;;;22.17;14.90;;;;;;;23.46;57.49;100996.41;5073891;28;20045;-76
2022/06/30 07:25:00;;;;;;;19.98;14.93;;;;;;;23.50;56.76;101000.56;5073960;28;20059;-76
2022/06/30 07:27:27;;;;;;;18.17;15.93;;;;;;;23.54;57.33;100999.31;5068096;28;20091;-76
2022/06/30 07:29:55;;;;;;;20.13;16.05;;;;;;;23.55;57.07;100999.19;5074174;28;20043;-76
2022/06/30 07:32:23;;;;;;;18.65;16.40;;;;;;;23.60;56.39;101001.53;5057434;28;20519;-76
2022/06/30 07:34:54;;;;;;;28.05;16.15;;;;;;;23.65;56.93;101007.34;5053686;28;20489;-77
2022/06/30 07:37:21;;;;;;;17.88;15.98;;;;;;;23.68;56.65;101007.09;5053331;28;20122;-75
2022/06/30 07:39:48;;;;;;;18.05;16.17;;;;;;;23.69;56.81;101014.22;5053490;28;20046;-76
2022/06/30 07:42:15;;;;;;;21.35;17.77;;;;;;;23.72;56.62;101005.84;5055091;28;20037;-78
2022/06/30 07:44:43;;;;;;;21.73;16.80;;;;;;;23.76;57.28;101014.53;5068562;28;20041;-77
2022/06/30 07:47:11;;;;;;;22.05;17.23;;;;;;;23.83;57.27;101018.44;5073016;28;20784;-77
2022/06/30 07:49:38;;;;;;;22.73;17.27;;;;;;;23.85;57.15;101032.63;5058020;28;20068;-75
2022/06/30 07:52:06;;;;;;;23.90;17.63;;;;;;;23.87;57.28;101030.63;5053743;28;20550;-77
2022/06/30 07:54:39;;;;;;;;;;;;;;;23.94;58.39;101033.66;5057600;28;20508;-76
2022/06/30 07:57:07;;;;;;;37.15;19.75;;;;;;;24.02;58.28;101041.97;5073259;28;20002;-78
2022/06/30 07:59:55;;;;;;;20.92;18.42;;;;;;;24.10;57.43;101037.78;5071795;28;20037;-77
2022/06/30 08:02:22;;;;;;;29.45;19.02;;;;;;;24.17;57.49;101044.34;5072645;28;20049;-77
2022/06/30 08:04:49;;;;;;;21.33;18.42;;;;;;;24.19;57.94;101059.41;5073479;28;20110;-77
2022/06/30 08:07:18;;;;;;;19.92;17.80;;;;;;;24.23;57.42;101051.91;5069124;28;20136;-77
2022/06/30 08:09:46;;;;;;;30.75;18.90;;;;;;;24.33;57.38;101060.06;5073478;28;20435;-77
2022/06/30 08:12:13;;;;;;;27.00;19.40;;;;;;;24.39;56.80;101058.69;5070232;28;20037;-75
2022/06/30 08:14:40;;;;;;;36.75;19.05;;;;;;;24.47;56.94;101064.28;5053315;28;20050;-76
2022/06/30 08:17:10;;;;;;;22.73;17.90;;;;;;;24.57;56.77;101067.03;5053176;28;20049;-77
2022/06/30 08:19:38;;;;;;;22.27;18.13;;;;;;;24.61;56.77;101068.47;5052923;28;20041;-77
2022/06/30 08:22:05;;;;;;;22.70;18.17;;;;;;;24.64;56.77;101055.56;5052724;28;20092;-75
2022/06/30 08:24:37;;;;;;;20.73;15.25;;;;;;;24.65;55.15;101054.59;5052995;28;20124;-76
2022/06/30 08:27:06;;;;;;;17.67;15.73;;;;;;;24.59;55.22;101057.81;5054272;28;20127;-76
2022/06/30 08:29:34;;;;;;;18.92;15.15;;;;;;;24.53;54.83;101057.50;5066531;28;20033;-75
2022/06/30 08:32:03;;;;;;;22.98;16.23;;;;;;;24.48;54.82;101050.66;5072429;28;20037;-76
2022/06/30 08:34:30;;;;;;;19.48;15.52;;;;;;;24.43;55.53;101043.94;5071788;28;20045;-76
2022/06/30 08:36:58;;;;;;;20.05;15.80;;;;;;;24.42;55.74;101037.72;5073031;28;20864;-76
2022/06/30 08:42:12;;;;;;;20.17;16.05;;;;;;;24.62;55.75;101045.91;5072472;28;20098;-76
2022/06/30 08:44:43;;;;;;;24.40;15.07;;;;;;;24.74;55.16;101041.31;5068166;28;20037;-77
2022/06/30 08:47:12;;;;;;;26.73;15.98;;;;;;;24.91;55.20;101038.03;5058051;28;20108;-76
2022/06/30 08:49:39;;;;;;;18.52;14.05;;;;;;;25.00;53.17;101033.63;5052605;28;20618;-76
2022/06/30 08:52:10;;;;;;;30.27;13.98;;;;;;;24.97;52.52;101033.94;5052417;28;20076;-77
2022/06/30 08:54:39;;;;;;;20.92;13.63;;;;;;;24.95;52.86;101023.25;5052528;28;20126;-76
2022/06/30 08:57:09;;;;;;;17.63;12.82;;;;;;;24.97;52.15;101023.13;5057236;28;20057;-75
2022/06/30 08:59:37;;;;;;;15.85;12.65;;;;;;;25.05;51.94;101025.13;5066747;28;20104;-76
2022/06/30 09:02:05;;;;;;;17.00;13.57;;;;;;;25.03;52.41;101033.38;5061287;28;20076;-76
2022/06/30 09:04:32;;;;;;;23.45;12.13;;;;;;;25.06;52.51;101034.94;5051691;28;20083;-75
2022/06/30 09:06:59;;;;;;;21.17;12.98;;;;;;;25.08;52.69;101039.19;5052239;28;20054;-75
2022/06/30 09:09:27;;;;;;;18.13;12.70;;;;;;;25.22;52.67;101037.97;5052296;28;20133;-75
2022/06/30 09:11:57;;;;;;;17.15;13.55;;;;;;;25.34;52.60;101032.44;5067112;28;20124;-76
2022/06/30 09:14:42;;;;;;;18.05;12.50;;;;;;;25.47;52.90;101027.69;5072000;28;20041;-76
2022/06/30 09:17:18;;;;;;;18.30;12.10;;;;;;;25.47;52.23;101024.97;5070940;28;20091;-75
2022/06/30 09:20:02;;;;;;;16.90;10.77;;;;;;;25.47;52.17;101032.25;5072726;28;20041;-75
2022/06/30 09:22:36;;;;;;;21.25;10.95;;;;;;;25.58;51.96;101030.25;5072508;28;20079;-75
2022/06/30 09:25:09;;;;;;;16.73;9.15;;;;;;;25.65;50.16;101030.56;5066574;28;20073;-76
2022/06/30 09:27:39;;;;;;;11.55;8.60;;;;;;;25.67;50.11;101030.41;5051651;28;20077;-76
2022/06/30 09:30:14;;;;;;;19.33;9.88;;;;;;;25.71;50.56;101032.69;5052123;28;20095;-75
2022/06/30 09:33:06;;;;;;;16.65;10.20;;;;;;;25.74;51.02;101034.28;5071457;28;20045;-75
2022/06/30 09:35:36;;;;;;;14.75;9.15;;;;;;;25.84;50.79;101036.94;5070552;28;20037;-76
2022/06/30 09:38:12;;;;;;;14.52;8.60;;;;;;;25.95;50.28;101044.91;5072337;28;20139;-76
2022/06/30 09:41:04;;;;;;;16.52;9.32;;;;;;;25.98;50.04;101036.53;5071825;28;20091;-76
2022/06/30 09:43:37;;;;;;;13.77;8.20;;;;;;;26.03;49.12;101045.06;5071926;28;20505;-75
2022/06/30 09:46:09;;;;;;;16.83;8.85;;;;;;;26.08;50.08;101047.31;5067586;28;20099;-76
2022/06/30 09:48:40;;;;;;;15.38;8.50;;;;;;;26.22;50.30;101047.91;5063878;28;20044;-76
2022/06/30 09:51:07;;;;;;;14.38;8.35;;;;;;;26.26;49.63;101038.50;5068841;28;20040;-76
2022/06/30 09:53:34;;;;;;;13.82;8.38;;;;;;;26.34;49.39;101039.50;5066281;28;20091;-76
2022/06/30 09:56:16;;;;;;;14.15;8.05;;;;;;;26.46;49.11;101032.06;5073507;28;20041;-76
2022/06/30 09:58:43;;;;;;;16.50;8.38;;;;;;;26.55;49.73;101040.31;5072631;28;20476;-77
2022/06/30 10:01:11;;;;;;;12.05;7.82;;;;;;;26.63;49.49;101045.84;5074711;28;20037;-76
2022/06/30 10:03:59;;;;;;;21.83;8.70;;;;;;;26.75;48.25;101041.97;5075396;28;20569;-77
2022/06/30 10:06:28;;;;;;;16.42;8.43;;;;;;;26.87;48.24;101033.66;5069769;28;20103;-76
2022/06/30 10:08:56;;;;;;;25.95;8.02;;;;;;;26.91;48.03;101041.34;5066891;28;20047;-76
2022/06/30 10:11:25;;;;;;;19.67;8.43;;;;;;;26.95;47.91;101041.91;5073959;28;20759;-77
2022/06/30 10:13:53;;;;;;;9.20;6.82;;;;;;;26.86;48.24;101037.41;5075429;28;20601;-77
2022/06/30 10:16:23;;;;;;;15.63;7.13;;;;;;;26.85;47.68;101038.41;5074350;28;20099;-76
2022/06/30 10:18:52;;;;;;;10.48;6.18;;;;;;;26.87;46.73;101042.66;5071748;28;20046;-77
2022/06/30 10:21:22;;;;;;;23.25;6.38;;;;;;;26.87;46.63;101039.94;5073994;28;20515;-78
2022/06/30 10:23:50;;;;;;;13.63;6.15;;;;;;;26.95;46.38;101034.63;5072779;28;20099;-77
2022/06/30 10:29:04;;;;;;;11.77;6.07;;;;;;;26.96;46.47;101024.69;5073504;28;20119;-77
2022/06/30 10:31:43;;;;;;;11.50;5.07;;;;;;;27.04;46.12;101026.63;5073774;28;20037;-78
2022/06/30 10:34:20;;;;;;;8.93;5.47;;;;;;;27.16;45.12;101030.84;5073226;28;20044;-75
2022/06/30 10:37:03;;;;;;;15.77;6.00;;;;;;;27.21;45.72;101023.13;5074542;28;20045;-76
2022/06/30 10:40:09;;;;;;;12.98;5.47;;;;;;;27.24;45.21;101028.22;5073713;28;20044;-76
2022/06/30 10:42:44;;;;;;;10.95;5.50;;;;;;;27.28;45.98;101035.03;5073146;28;20045;-76
2022/06/30 10:45:26;;;;;;;21.15;5.13;;;;;;;27.45;44.84;101032.53;5072045;28;20389;-76
2022/06/30 10:48:09;;;;;;;9.05;4.78;;;;;;;27.52;44.69;101039.03;5069870;28;20073;-76
2022/06/30 10:50:42;;;;;;;15.13;4.60;;;;;;;27.54;45.07;101037.03;5074313;28;20116;-75
2022/06/30 10:53:15;;;;;;;15.07;4.87;;;;;;;27.65;44.87;101035.09;5074127;28;20049;-74
2022/06/30 10:55:53;;;;;;;;;;;;;;;27.78;45.32;101034.75;5068206;28;20475;-77
2022/06/30 10:58:22;;;;;;;15.35;7.55;;;;;;;28.01;46.14;101037.81;5071465;28;19929;-75
2022/06/30 11:00:55;;;;;;;13.43;6.78;;;;;;;28.12;45.78;101037.59;5067843;28;20121;-77
2022/06/30 11:03:34;;;;;;;22.52;6.93;;;;;;;28.08;45.18;101024.53;5074314;28;20064;-76
2022/06/30 11:06:12;;;;;;;16.17;6.60;;;;;;;28.12;46.08;101020.47;5072879;28;20488;-76
2022/06/30 11:08:39;;;;;;;27.88;6.72;;;;;;;28.17;46.32;101032.56;5071367;28;20037;-76
2022/06/30 11:11:22;;;;;;;30.65;7.30;;;;;;;28.23;46.62;101025.66;5074289;28;20123;-76
2022/06/30 11:14:00;;;;;;;38.33;8.15;;;;;;;28.30;45.28;101036.72;5060667;28;20095;-76
2022/06/30 11:16:33;;;;;;;13.85;7.10;;;;;;;28.25;44.58;101025.47;5072068;28;20037;-77
2022/06/30 11:19:05;;;;;;;19.40;6.75;;;;;;;28.10;45.35;101038.75;5073843;28;20088;-76
2022/06/30 11:21:32;;;;;;;21.70;6.53;;;;;;;28.18;44.90;101034.25;5069950;28;20037;-76
2022/06/30 11:24:02;;;;;;;26.65;7.43;;;;;;;28.35;44.60;101027.09;5071511;28;20037;-76
2022/06/30 11:29:18;;;;;;;15.73;6.50;;;;;;;28.50;44.93;101015.66;5071685;28;20037;-76
2022/06/30 11:31:46;;;;;;;10.45;6.60;;;;;;;28.58;44.20;101007.59;5073380;28;20037;-75
2022/06/30 11:34:20;;;;;;;23.50;6.35;;;;;;;28.56;44.87;101011.44;5063224;28;20049;-75
2022/06/30 11:36:49;;;;;;;13.07;6.15;;;;;;;28.59;44.96;101019.28;5059747;28;20436;-77
2022/06/30 11:39:19;;;;;;;11.30;6.43;;;;;;;28.60;44.71;101016.38;5062288;28;20095;-78
2022/06/30 11:41:56;;;;;;;21.60;5.93;;;;;;;28.64;45.19;101011.53;5065582;28;20090;-78
2022/06/30 11:44:34;;;;;;;16.52;6.38;;;;;;;28.85;44.06;101010.25;5060957;28;20040;-77
2022/06/30 11:47:11;;;;;;;22.05;6.10;;;;;;;28.93;43.32;101011.16;5073569;28;20068;-77
2022/06/30 11:49:48;;;;;;;38.35;6.80;;;;;;;29.02;42.92;101006.63;5072296;28;20037;-77
2022/06/30 11:52:17;;;;;;;13.52;6.47;;;;;;;28.96;43.31;101002.72;5073414;28;20512;-77